Terminal Aerodrome Forecast
Issued by NWS

Home | Current Version | Previous Version | Text Only | Print | Product List | Glossary On
Versions: 1 2 3 4 5 6 7 8 9 10 11 12 13
000
FTUS42 KTAE 212100 AAA
TAFECP
TAF AMD
KECP 212108Z 2121/2218 04004KT 2SM BR OVC003
     FM220200 08005KT 2SM -RA BR OVC003
     FM221300 08005KT 6SM -RA BR OVC004=

USA.gov is the U.S. government's official web portal to all federal, state and local government web resources and services.